createdAt,value
2022-08-08T00:01:06.512Z,26.10
2022-08-08T00:03:48.011Z,26.00
2022-08-08T00:06:34.028Z,26.00
2022-08-08T00:09:07.990Z,26.00
2022-08-08T00:11:46.669Z,25.90
2022-08-08T00:14:57.436Z,25.90
2022-08-08T00:17:47.879Z,25.90
2022-08-08T00:20:18.205Z,25.90
2022-08-08T00:22:47.995Z,25.90
2022-08-08T00:25:17.441Z,25.90
2022-08-08T00:27:45.155Z,25.80
2022-08-08T00:30:15.800Z,25.80
2022-08-08T00:32:48.137Z,25.80
2022-08-08T00:35:48.794Z,25.80
2022-08-08T00:38:51.501Z,25.70
2022-08-08T00:42:09.190Z,25.70
2022-08-08T00:45:21.250Z,25.60
2022-08-08T00:48:29.848Z,25.60
2022-08-08T00:51:25.542Z,25.60
2022-08-08T00:54:36.182Z,25.50
2022-08-08T00:57:35.893Z,25.50
2022-08-08T01:00:09.533Z,25.40
2022-08-08T01:03:54.098Z,25.40
2022-08-08T01:06:27.647Z,25.40
2022-08-08T01:09:48.779Z,25.40
2022-08-08T01:12:45.884Z,25.30
2022-08-08T01:15:44.036Z,25.30
2022-08-08T01:18:53.046Z,25.30
2022-08-08T01:22:12.845Z,25.20
2022-08-08T01:24:53.723Z,25.20
2022-08-08T01:27:52.299Z,25.20
2022-08-08T01:30:55.014Z,25.20
2022-08-08T01:34:00.725Z,25.20
2022-08-08T01:36:53.020Z,25.10
2022-08-08T01:39:34.877Z,25.10
2022-08-08T01:42:08.240Z,25.00
2022-08-08T01:44:43.555Z,25.00
2022-08-08T01:48:16.542Z,25.00
2022-08-08T01:50:20.836Z,25.00
2022-08-08T01:54:33.427Z,25.00
2022-08-08T01:56:31.141Z,25.00
2022-08-08T01:58:46.430Z,24.90
2022-08-08T02:01:28.085Z,24.90
2022-08-08T02:04:15.952Z,24.90
2022-08-08T02:07:00.778Z,24.90
2022-08-08T02:10:02.190Z,24.90
2022-08-08T02:12:29.619Z,24.90
2022-08-08T02:15:02.952Z,24.80
2022-08-08T02:17:43.128Z,24.80
2022-08-08T02:20:16.165Z,24.80
2022-08-08T02:23:15.982Z,24.70
2022-08-08T02:25:49.018Z,24.70
2022-08-08T02:28:20.858Z,24.70
2022-08-08T02:31:04.956Z,24.70
2022-08-08T02:34:09.277Z,24.70
2022-08-08T02:36:40.757Z,24.60
2022-08-08T02:39:42.170Z,24.60
2022-08-08T02:44:35.699Z,24.60
2022-08-08T02:46:19.956Z,24.60
2022-08-08T02:49:13.415Z,24.60
2022-08-08T02:52:32.802Z,24.50
2022-08-08T02:55:10.237Z,24.50
2022-08-08T02:58:26.738Z,24.50
2022-08-08T03:01:14.907Z,24.50
2022-08-08T03:05:04.438Z,24.40
2022-08-08T03:07:57.553Z,24.40
2022-08-08T03:11:01.900Z,24.40
2022-08-08T03:15:57.496Z,24.40
2022-08-08T03:16:37.867Z,24.40
2022-08-08T03:19:40.114Z,24.40
2022-08-08T03:22:38.270Z,24.30
2022-08-08T03:25:14.786Z,24.30
2022-08-08T03:27:56.513Z,24.30
2022-08-08T03:30:25.053Z,24.30
2022-08-08T03:33:55.109Z,24.20
2022-08-08T03:35:58.576Z,24.20
2022-08-08T03:38:57.694Z,24.20
2022-08-08T03:42:04.136Z,24.20
2022-08-08T03:44:03.668Z,24.20
2022-08-08T03:46:32.709Z,24.10
2022-08-08T03:49:54.897Z,24.10
2022-08-08T03:51:53.090Z,24.10
2022-08-08T03:54:51.698Z,24.10
2022-08-08T03:58:30.559Z,24.10
2022-08-08T04:00:08.081Z,24.00
2022-08-08T04:02:47.214Z,24.00
2022-08-08T04:05:22.817Z,24.00
2022-08-08T04:07:56.600Z,24.00
2022-08-08T04:10:25.926Z,24.00
2022-08-08T04:13:08.236Z,24.00
2022-08-08T04:15:54.891Z,24.00
2022-08-08T04:18:32.215Z,24.00
2022-08-08T04:21:00.270Z,23.90
2022-08-08T04:23:33.429Z,23.90
2022-08-08T04:26:16.993Z,23.90
2022-08-08T04:28:48.900Z,23.90
2022-08-08T04:31:56.783Z,23.80
2022-08-08T04:34:10.689Z,23.80
2022-08-08T04:36:38.855Z,23.80
2022-08-08T04:40:04.226Z,23.80
2022-08-08T04:41:55.901Z,23.80
2022-08-08T04:44:26.729Z,23.80
2022-08-08T04:46:55.024Z,23.80
2022-08-08T04:49:28.778Z,23.80
2022-08-08T04:52:13.824Z,23.80
2022-08-08T04:54:42.665Z,23.80
2022-08-08T04:57:10.653Z,23.80
2022-08-08T04:59:41.895Z,23.80
2022-08-08T05:02:10.675Z,23.80
2022-08-08T05:04:42.021Z,23.70
2022-08-08T05:07:14.831Z,23.70
2022-08-08T05:09:43.302Z,23.70
2022-08-08T05:12:20.396Z,23.70
2022-08-08T05:15:00.616Z,23.70
2022-08-08T05:17:53.469Z,23.60
2022-08-08T05:20:20.425Z,23.60
2022-08-08T05:22:50.305Z,23.60
2022-08-08T05:25:21.457Z,23.60
2022-08-08T05:27:49.625Z,23.60
2022-08-08T05:30:28.399Z,23.60
2022-08-08T05:32:56.662Z,23.50
2022-08-08T05:35:26.463Z,23.50
2022-08-08T05:37:56.045Z,23.50
2022-08-08T05:40:28.141Z,23.50
2022-08-08T05:42:59.580Z,23.50
2022-08-08T05:45:43.047Z,23.50
2022-08-08T05:48:28.771Z,23.50
2022-08-08T05:51:15.017Z,23.40
2022-08-08T05:54:26.013Z,23.40
2022-08-08T05:56:31.466Z,23.40
2022-08-08T05:59:03.933Z,23.40
2022-08-08T06:01:56.841Z,23.50
2022-08-08T06:04:24.968Z,23.50
2022-08-08T06:06:53.601Z,23.60
2022-08-08T06:09:41.565Z,23.60
2022-08-08T06:12:18.402Z,23.70
2022-08-08T06:14:47.896Z,23.70
2022-08-08T06:17:19.619Z,23.90
2022-08-08T06:19:47.704Z,23.90
2022-08-08T06:25:03.694Z,24.10
2022-08-08T06:27:36.759Z,24.10
2022-08-08T06:30:19.703Z,24.20
2022-08-08T06:32:52.727Z,24.30
2022-08-08T06:36:08.092Z,24.40
2022-08-08T06:38:14.117Z,24.50
2022-08-08T06:40:53.625Z,24.50
2022-08-08T06:43:30.782Z,24.60
2022-08-08T06:46:02.613Z,24.70
2022-08-08T06:48:32.438Z,24.80
2022-08-08T06:51:04.301Z,24.90
2022-08-08T06:53:39.746Z,24.90
2022-08-08T06:56:18.427Z,25.00
2022-08-08T06:58:51.005Z,25.10
2022-08-08T07:02:16.802Z,25.20
2022-08-08T07:04:39.700Z,25.40
2022-08-08T07:07:00.800Z,25.40
2022-08-08T07:09:45.286Z,25.50
2022-08-08T07:12:40.006Z,25.70
2022-08-08T07:15:32.451Z,25.80
2022-08-08T07:18:34.655Z,25.90
2022-08-08T07:20:50.434Z,26.00
2022-08-08T07:23:23.520Z,26.10
2022-08-08T07:25:54.544Z,26.20
2022-08-08T07:28:24.374Z,26.40
2022-08-08T07:30:59.698Z,26.60
2022-08-08T07:33:27.547Z,26.70
2022-08-08T07:36:08.484Z,26.90
2022-08-08T07:38:37.186Z,27.00
2022-08-08T07:41:05.561Z,27.20
2022-08-08T07:43:38.030Z,27.30
2022-08-08T07:46:24.148Z,27.40
2022-08-08T07:48:54.710Z,27.50
2022-08-08T07:51:44.759Z,27.70
2022-08-08T07:54:26.431Z,27.80
2022-08-08T07:56:59.973Z,28.00
2022-08-08T07:59:37.554Z,28.10
2022-08-08T08:02:35.726Z,28.30
2022-08-08T08:04:56.634Z,28.50
2022-08-08T08:07:32.092Z,28.70
2022-08-08T08:10:06.150Z,28.80
2022-08-08T08:12:41.299Z,29.00
2022-08-08T08:15:11.739Z,29.20
2022-08-08T08:17:49.177Z,29.40
2022-08-08T08:20:29.779Z,29.60
2022-08-08T08:23:00.160Z,29.80
2022-08-08T08:25:43.520Z,29.80
2022-08-08T08:28:16.916Z,29.80
2022-08-08T08:30:45.762Z,29.90
2022-08-08T08:33:13.794Z,30.00
2022-08-08T08:36:18.497Z,30.20
2022-08-08T08:38:49.283Z,30.30
2022-08-08T08:41:20.185Z,30.60
2022-08-08T08:43:50.722Z,30.80
2022-08-08T08:46:20.211Z,31.00
2022-08-08T08:48:54.070Z,31.10
2022-08-08T08:51:22.055Z,31.30
2022-08-08T08:53:56.299Z,31.50
2022-08-08T08:56:28.523Z,31.60
2022-08-08T08:58:57.941Z,31.70
2022-08-08T09:01:28.842Z,31.90
2022-08-08T09:04:01.529Z,32.00
2022-08-08T09:06:33.512Z,32.20
2022-08-08T09:09:07.217Z,32.30
2022-08-08T09:11:47.368Z,32.40
2022-08-08T09:14:20.365Z,32.70
2022-08-08T09:16:52.069Z,33.00
2022-08-08T09:21:57.180Z,33.10
2022-08-08T09:22:08.874Z,33.10
2022-08-08T09:24:38.041Z,33.00
2022-08-08T09:27:15.038Z,32.90
2022-08-08T09:29:52.974Z,32.70
2022-08-08T09:32:37.393Z,32.60
2022-08-08T09:35:08.588Z,32.40
2022-08-08T09:38:01.038Z,32.20
2022-08-08T09:40:46.468Z,32.20
2022-08-08T09:43:24.118Z,32.10
2022-08-08T09:46:11.305Z,32.00
2022-08-08T09:48:50.189Z,32.00
2022-08-08T09:51:18.291Z,31.90
2022-08-08T09:53:59.191Z,32.10
2022-08-08T09:56:31.476Z,32.40
2022-08-08T09:59:14.933Z,32.90
2022-08-08T10:01:59.518Z,33.40
2022-08-08T10:04:41.433Z,33.70
2022-08-08T10:07:13.986Z,34.00
2022-08-08T10:09:59.729Z,34.20
2022-08-08T10:12:38.638Z,34.30
2022-08-08T10:15:21.646Z,34.30
2022-08-08T10:18:05.557Z,34.30
2022-08-08T10:20:51.289Z,34.20
2022-08-08T10:23:42.189Z,34.10
2022-08-08T10:26:25.705Z,34.00
2022-08-08T10:29:05.660Z,34.20
2022-08-08T10:31:52.108Z,34.50
2022-08-08T10:34:24.615Z,34.90
2022-08-08T10:36:56.351Z,35.30
2022-08-08T10:39:42.943Z,35.50
2022-08-08T10:42:16.820Z,35.70
2022-08-08T10:44:49.226Z,35.80
2022-08-08T10:47:18.902Z,36.10
2022-08-08T10:50:01.352Z,36.30
2022-08-08T10:52:31.948Z,36.50
2022-08-08T10:55:06.342Z,36.70
2022-08-08T10:57:49.832Z,36.80
2022-08-08T11:00:25.723Z,37.10
2022-08-08T11:02:53.948Z,37.20
2022-08-08T11:05:23.115Z,37.20
2022-08-08T11:08:37.870Z,37.20
2022-08-08T11:10:39.947Z,37.20
2022-08-08T11:16:07.543Z,36.90
2022-08-08T11:18:36.432Z,36.70
2022-08-08T11:21:09.314Z,36.60
2022-08-08T11:23:40.056Z,36.40
2022-08-08T11:26:08.578Z,36.30
2022-08-08T11:28:38.831Z,36.30
2022-08-08T11:31:09.770Z,36.40
2022-08-08T11:33:52.328Z,36.50
2022-08-08T11:36:27.730Z,36.80
2022-08-08T11:38:57.776Z,36.80
2022-08-08T11:41:27.880Z,36.70
2022-08-08T11:44:00.968Z,36.50
2022-08-08T11:46:32.596Z,36.40
2022-08-08T11:49:04.807Z,36.30
2022-08-08T11:51:40.409Z,36.20
2022-08-08T11:54:32.040Z,36.40
2022-08-08T11:57:13.964Z,36.60
2022-08-08T12:00:00.423Z,36.80
2022-08-08T12:02:33.914Z,37.00
2022-08-08T12:05:06.677Z,39.20
2022-08-08T12:07:45.752Z,41.00
2022-08-08T12:10:15.621Z,42.10
2022-08-08T12:12:48.037Z,43.80
2022-08-08T12:15:27.685Z,44.70
2022-08-08T12:17:57.182Z,44.80
2022-08-08T12:20:38.283Z,45.00
2022-08-08T12:23:06.902Z,43.80
2022-08-08T12:25:52.499Z,42.50
2022-08-08T12:28:22.743Z,41.50
2022-08-08T12:30:51.383Z,40.80
2022-08-08T12:33:21.905Z,40.20
2022-08-08T12:35:52.194Z,39.80
2022-08-08T12:38:31.181Z,39.70
2022-08-08T12:41:05.726Z,39.70
2022-08-08T12:43:59.701Z,40.90
2022-08-08T12:46:28.955Z,41.70
2022-08-08T12:49:22.288Z,41.60
2022-08-08T12:51:58.330Z,41.60
2022-08-08T12:54:28.699Z,41.70
2022-08-08T12:56:56.966Z,41.10
2022-08-08T12:59:36.827Z,43.10
2022-08-08T13:02:27.998Z,44.00
2022-08-08T13:04:59.875Z,44.30
2022-08-08T13:08:03.487Z,43.60
2022-08-08T13:10:27.875Z,43.50
2022-08-08T13:13:06.204Z,44.00
2022-08-08T13:15:36.737Z,44.10
2022-08-08T13:18:10.565Z,44.90
2022-08-08T13:20:48.194Z,44.40
2022-08-08T13:23:36.701Z,43.80
2022-08-08T13:26:15.325Z,43.30
2022-08-08T13:28:45.809Z,43.00
2022-08-08T13:31:17.361Z,43.00
2022-08-08T13:33:50.171Z,42.70
2022-08-08T13:36:26.005Z,42.10
2022-08-08T13:38:54.637Z,41.70
2022-08-08T13:41:37.516Z,41.30
2022-08-08T13:44:07.844Z,41.00
2022-08-08T13:46:39.071Z,40.80
2022-08-08T13:50:35.386Z,40.60
2022-08-08T13:52:07.643Z,40.30
2022-08-08T13:54:36.582Z,39.90
2022-08-08T13:57:13.433Z,39.60
2022-08-08T13:59:44.447Z,39.30
2022-08-08T14:02:20.373Z,39.10
2022-08-08T14:04:57.272Z,38.90
2022-08-08T14:07:30.730Z,38.80
2022-08-08T14:10:04.370Z,38.70
2022-08-08T14:12:39.575Z,38.70
2022-08-08T14:15:12.299Z,38.60
2022-08-08T14:17:58.162Z,38.60
2022-08-08T14:20:57.396Z,38.60
2022-08-08T14:24:08.046Z,38.60
2022-08-08T14:26:11.000Z,38.70
2022-08-08T14:28:40.171Z,38.80
2022-08-08T14:31:09.602Z,38.80
2022-08-08T14:33:39.110Z,38.80
2022-08-08T14:36:09.624Z,38.80
2022-08-08T14:38:52.825Z,38.80
2022-08-08T14:41:45.246Z,38.80
2022-08-08T14:44:22.512Z,38.70
2022-08-08T14:47:01.116Z,38.80
2022-08-08T14:49:37.949Z,38.80
2022-08-08T14:52:22.750Z,38.70
2022-08-08T14:54:52.346Z,38.70
2022-08-08T14:57:20.784Z,38.60
2022-08-08T15:00:09.664Z,38.70
2022-08-08T15:02:58.556Z,38.80
2022-08-08T15:05:43.266Z,38.70
2022-08-08T15:08:22.101Z,38.50
2022-08-08T15:11:04.515Z,38.30
2022-08-08T15:13:39.747Z,38.20
2022-08-08T15:16:11.675Z,38.10
2022-08-08T15:18:49.859Z,37.90
2022-08-08T15:21:19.507Z,37.70
2022-08-08T15:23:51.159Z,37.60
2022-08-08T15:26:21.353Z,37.50
2022-08-08T15:28:54.553Z,37.40
2022-08-08T15:31:25.721Z,37.30
2022-08-08T15:34:28.869Z,37.20
2022-08-08T15:36:58.428Z,37.10
2022-08-08T15:39:28.999Z,37.00
2022-08-08T15:42:00.771Z,36.90
2022-08-08T15:44:29.482Z,36.90
2022-08-08T15:46:57.651Z,36.80
2022-08-08T15:49:26.604Z,36.70
2022-08-08T15:51:57.360Z,36.60
2022-08-08T15:54:38.500Z,36.60
2022-08-08T15:57:11.128Z,36.50
2022-08-08T16:00:10.893Z,36.40
2022-08-08T16:02:30.423Z,36.20
2022-08-08T16:04:59.623Z,36.10
2022-08-08T16:07:52.117Z,36.00
2022-08-08T16:13:11.563Z,35.80
2022-08-08T16:13:34.553Z,35.70
2022-08-08T16:15:57.678Z,35.50
2022-08-08T16:18:28.118Z,35.30
2022-08-08T16:21:00.623Z,35.20
2022-08-08T16:23:32.170Z,35.10
2022-08-08T16:26:05.029Z,35.00
2022-08-08T16:28:42.367Z,34.90
2022-08-08T16:31:10.607Z,34.80
2022-08-08T16:33:40.040Z,34.80
2022-08-08T16:36:09.601Z,34.70
2022-08-08T16:38:44.341Z,34.60
2022-08-08T16:41:18.382Z,34.50
2022-08-08T16:43:51.080Z,34.30
2022-08-08T16:46:43.974Z,34.30
2022-08-08T16:49:09.026Z,34.20
2022-08-08T16:54:59.754Z,34.00
2022-08-08T16:55:00.749Z,34.00
2022-08-08T16:58:11.883Z,33.90
2022-08-08T17:00:09.293Z,33.80
2022-08-08T17:02:39.989Z,33.70
2022-08-08T17:05:10.225Z,33.60
2022-08-08T17:07:42.294Z,33.60
2022-08-08T17:10:11.553Z,33.50
2022-08-08T17:12:52.526Z,33.40
2022-08-08T17:15:23.003Z,33.40
2022-08-08T17:18:03.684Z,33.30
2022-08-08T17:20:32.810Z,33.20
2022-08-08T17:23:16.746Z,33.20
2022-08-08T17:25:54.255Z,33.10
2022-08-08T17:28:34.715Z,33.00
2022-08-08T17:31:11.824Z,33.00
2022-08-08T17:34:49.636Z,32.90
2022-08-08T17:37:01.061Z,32.80
2022-08-08T17:40:03.748Z,32.80
2022-08-08T17:42:18.132Z,32.70
2022-08-08T17:44:46.355Z,32.60
2022-08-08T17:47:23.756Z,32.50
2022-08-08T17:49:52.863Z,32.50
2022-08-08T17:52:23.145Z,32.40
2022-08-08T17:54:55.966Z,32.30
2022-08-08T17:57:24.226Z,32.30
2022-08-08T17:59:59.096Z,32.20
2022-08-08T18:02:31.161Z,32.20
2022-08-08T18:05:00.973Z,32.10
2022-08-08T18:08:01.993Z,32.00
2022-08-08T18:10:31.564Z,31.90
2022-08-08T18:13:04.158Z,31.90
2022-08-08T18:15:35.666Z,31.80
2022-08-08T18:18:28.240Z,31.80
2022-08-08T18:20:59.602Z,31.80
2022-08-08T18:23:28.033Z,31.70
2022-08-08T18:26:01.631Z,31.60
2022-08-08T18:28:33.439Z,31.60
2022-08-08T18:31:20.113Z,31.50
2022-08-08T18:34:18.650Z,31.50
2022-08-08T18:36:37.357Z,31.40
2022-08-08T18:39:05.837Z,31.30
2022-08-08T18:41:51.433Z,31.30
2022-08-08T18:44:22.114Z,31.20
2022-08-08T18:46:57.881Z,31.20
2022-08-08T18:49:32.623Z,31.10
2022-08-08T18:52:08.897Z,31.00
2022-08-08T18:55:00.588Z,31.00
2022-08-08T18:57:41.213Z,30.90
2022-08-08T19:00:16.682Z,30.90
2022-08-08T19:02:55.291Z,30.80
2022-08-08T19:05:30.607Z,30.70
2022-08-08T19:08:09.646Z,30.70
2022-08-08T19:10:37.767Z,30.60
2022-08-08T19:13:20.678Z,30.50
2022-08-08T19:15:51.907Z,30.50
2022-08-08T19:18:32.016Z,30.50
2022-08-08T19:21:22.920Z,30.40
2022-08-08T19:23:59.140Z,30.40
2022-08-08T19:26:30.131Z,30.30
2022-08-08T19:28:59.262Z,30.20
2022-08-08T19:31:31.427Z,30.20
2022-08-08T19:34:29.756Z,30.10
2022-08-08T19:36:58.782Z,30.10
2022-08-08T19:39:30.824Z,30.10
2022-08-08T19:42:04.481Z,30.00
2022-08-08T19:44:45.593Z,29.90
2022-08-08T19:47:14.696Z,29.90
2022-08-08T19:49:43.411Z,29.80
2022-08-08T19:52:13.669Z,29.80
2022-08-08T19:54:43.171Z,29.70
2022-08-08T19:57:14.228Z,29.70
2022-08-08T19:59:44.013Z,29.60
2022-08-08T20:02:12.259Z,29.60
2022-08-08T20:04:40.379Z,29.50
2022-08-08T20:08:31.198Z,29.50
2022-08-08T20:10:08.550Z,29.40
2022-08-08T20:12:37.953Z,29.40
2022-08-08T20:15:10.359Z,29.40
2022-08-08T20:17:45.606Z,29.30
2022-08-08T20:20:19.212Z,29.30
2022-08-08T20:22:52.584Z,29.20
2022-08-08T20:25:29.948Z,29.20
2022-08-08T20:28:05.697Z,29.10
2022-08-08T20:30:53.095Z,29.10
2022-08-08T20:35:57.849Z,29.00
2022-08-08T20:38:29.083Z,29.00
2022-08-08T20:41:17.154Z,28.90
2022-08-08T20:43:49.323Z,28.90
2022-08-08T20:46:20.588Z,28.80
2022-08-08T20:48:51.510Z,28.80
2022-08-08T20:51:20.632Z,28.80
2022-08-08T20:53:59.557Z,28.70
2022-08-08T20:56:35.992Z,28.70
2022-08-08T20:59:06.051Z,28.70
2022-08-08T21:01:44.334Z,28.60
2022-08-08T21:04:23.205Z,28.60
2022-08-08T21:06:52.935Z,28.50
2022-08-08T21:09:21.976Z,28.50
2022-08-08T21:11:53.614Z,28.50
2022-08-08T21:14:34.733Z,28.40
2022-08-08T21:17:06.233Z,28.40
2022-08-08T21:19:46.102Z,28.40
2022-08-08T21:22:15.788Z,28.30
2022-08-08T21:24:52.691Z,28.30
2022-08-08T21:28:05.208Z,28.30
2022-08-08T21:30:18.750Z,28.20
2022-08-08T21:32:51.189Z,28.20
2022-08-08T21:36:16.672Z,28.20
2022-08-08T21:38:17.193Z,28.10
2022-08-08T21:40:56.431Z,28.10
2022-08-08T21:43:34.361Z,28.10
2022-08-08T21:48:05.751Z,28.00
2022-08-08T21:48:53.577Z,28.00
2022-08-08T21:54:35.078Z,27.90
2022-08-08T21:54:36.541Z,28.00
2022-08-08T21:57:00.009Z,27.90
2022-08-08T22:00:01.850Z,27.80
2022-08-08T22:02:19.544Z,27.80
2022-08-08T22:04:51.438Z,27.80
2022-08-08T22:07:19.425Z,27.70
2022-08-08T22:09:47.407Z,27.70
2022-08-08T22:12:16.880Z,27.70
2022-08-08T22:14:47.421Z,27.70
2022-08-08T22:17:19.158Z,27.60
2022-08-08T22:20:13.142Z,27.60
2022-08-08T22:22:38.116Z,27.50
2022-08-08T22:25:12.510Z,27.50
2022-08-08T22:28:02.717Z,27.50
2022-08-08T22:30:41.595Z,27.50
2022-08-08T22:34:11.070Z,27.40
2022-08-08T22:36:04.223Z,27.40
2022-08-08T22:38:48.529Z,27.30
2022-08-08T22:41:21.607Z,27.30
2022-08-08T22:44:05.809Z,27.30
2022-08-08T22:46:38.753Z,27.20
2022-08-08T22:49:09.044Z,27.20
2022-08-08T22:51:42.785Z,27.20
2022-08-08T22:54:30.206Z,27.10
2022-08-08T22:57:01.859Z,27.10
2022-08-08T22:59:52.946Z,27.00
2022-08-08T23:02:29.451Z,27.00
2022-08-08T23:04:57.739Z,27.00
2022-08-08T23:07:51.837Z,26.90
2022-08-08T23:10:19.456Z,26.90
2022-08-08T23:12:47.895Z,26.90
2022-08-08T23:16:40.860Z,26.80
2022-08-08T23:18:11.933Z,26.80
2022-08-08T23:20:41.013Z,26.80
2022-08-08T23:23:11.137Z,26.80
2022-08-08T23:25:48.105Z,26.70
2022-08-08T23:28:18.183Z,26.70
2022-08-08T23:30:46.969Z,26.70
2022-08-08T23:33:20.873Z,26.60
2022-08-08T23:36:07.753Z,26.60
2022-08-08T23:38:41.586Z,26.50
2022-08-08T23:41:22.909Z,26.50
2022-08-08T23:43:54.279Z,26.50
2022-08-08T23:49:02.104Z,26.50
2022-08-08T23:49:14.652Z,26.50
2022-08-08T23:52:06.326Z,26.40
2022-08-08T23:54:43.569Z,26.40
2022-08-08T23:57:27.006Z,26.40
